Time;durP1;ratioP1;P1;durP2;ratioP2;P2;SDS_P1;SDS_P2;PMS_P1;PMS_P2;Temp;Humidity;BMP_temperature;BMP_pressure;BME280_temperature;BME280_humidity;BME280_pressure;Samples;Min_cycle;Max_cycle;Signal;HPM_P1;HPM_P2
2024/01/13 00:01:16;;;;;;;47.60;26.70;;;1.60;94.30;;;;;;5102228;28;20194;-81
2024/01/13 00:03:43;;;;;;;44.37;27.17;;;1.60;94.40;;;;;;5072729;28;20200;-81
2024/01/13 00:06:11;;;;;;;47.67;27.37;;;1.60;94.40;;;;;;5096889;28;20207;-81
2024/01/13 00:08:41;;;;;;;46.00;28.37;;;1.60;94.40;;;;;;5089714;28;20207;-81
2024/01/13 00:11:08;;;;;;;42.53;27.97;;;1.60;94.50;;;;;;5100902;27;20200;-81
2024/01/13 00:13:36;;;;;;;46.33;27.20;;;1.60;94.50;;;;;;5076753;28;20246;-81
2024/01/13 00:16:03;;;;;;;47.30;26.90;;;1.60;94.60;;;;;;5071743;28;20203;-80
2024/01/13 00:18:30;;;;;;;45.67;27.47;;;1.60;94.60;;;;;;5108254;28;20265;-81
2024/01/13 00:21:07;;;;;;;43.40;26.37;;;1.70;94.60;;;;;;5101445;28;20558;-81
2024/01/13 00:23:36;;;;;;;44.87;27.73;;;1.70;94.60;;;;;;5094342;28;20601;-81
2024/01/13 00:26:03;;;;;;;42.90;25.57;;;1.60;94.50;;;;;;5101705;28;20195;-82
2024/01/13 00:28:31;;;;;;;44.13;26.57;;;1.60;94.50;;;;;;5086256;28;20217;-82
2024/01/13 00:31:06;;;;;;;52.60;28.10;;;1.60;94.50;;;;;;5087089;28;20205;-81
2024/01/13 00:33:43;;;;;;;43.73;25.13;;;1.50;94.40;;;;;;5078521;28;20204;-82
2024/01/13 00:36:11;;;;;;;47.77;27.87;;;1.50;94.40;;;;;;5095547;28;20209;-82
2024/01/13 00:38:39;;;;;;;41.80;27.27;;;1.50;94.50;;;;;;5091797;28;20553;-83
2024/01/13 00:41:07;;;;;;;45.00;27.30;;;1.40;94.50;;;;;;5095492;28;20262;-82
2024/01/13 00:43:37;;;;;;;53.23;28.27;;;1.40;94.60;;;;;;5068841;28;20202;-82
2024/01/13 00:46:05;;;;;;;49.40;28.17;;;1.40;94.70;;;;;;5090779;28;20587;-82
2024/01/13 00:48:36;;;;;;;44.50;28.00;;;1.40;94.70;;;;;;5076170;28;20297;-82
2024/01/13 00:51:10;;;;;;;50.67;29.30;;;1.40;94.80;;;;;;5082433;28;20230;-82
2024/01/13 00:53:39;;;;;;;46.67;27.57;;;1.40;94.80;;;;;;5087841;28;20203;-82
2024/01/13 00:56:07;;;;;;;49.13;27.53;;;1.50;94.80;;;;;;5073667;28;20207;-82
2024/01/13 00:58:36;;;;;;;48.43;28.83;;;1.50;94.80;;;;;;5078964;28;20633;-83
2024/01/13 01:01:12;;;;;;;47.60;28.57;;;1.50;94.90;;;;;;5091477;28;20213;-82
2024/01/13 01:03:43;;;;;;;52.10;29.47;;;1.50;94.90;;;;;;5079636;28;20207;-82
2024/01/13 01:06:11;;;;;;;50.17;28.97;;;1.50;95.00;;;;;;5101561;28;20271;-82
2024/01/13 01:08:40;;;;;;;46.37;27.20;;;1.50;95.00;;;;;;5093283;28;20202;-82
2024/01/13 01:11:09;;;;;;;48.30;27.53;;;1.50;95.00;;;;;;5091865;28;20203;-82
2024/01/13 01:13:38;;;;;;;44.67;26.60;;;1.50;95.00;;;;;;5094363;28;20650;-82
2024/01/13 01:16:05;;;;;;;50.03;28.17;;;1.40;94.90;;;;;;5094161;28;20292;-82
2024/01/13 01:18:33;;;;;;;49.27;29.63;;;1.40;94.90;;;;;;5093117;28;20219;-82
2024/01/13 01:21:12;;;;;;;49.97;28.53;;;1.40;94.80;;;;;;5094584;28;20204;-82
2024/01/13 01:23:41;;;;;;;54.27;32.27;;;1.40;94.80;;;;;;5082244;28;20217;-83
2024/01/13 01:26:09;;;;;;;53.70;31.13;;;1.30;94.80;;;;;;5080467;28;20231;-82
2024/01/13 01:28:36;;;;;;;53.13;30.37;;;1.20;94.80;;;;;;5096916;28;20207;-82
2024/01/13 01:31:04;;;;;;;52.23;28.63;;;1.20;94.90;;;;;;5074531;28;20212;-82
2024/01/13 01:33:33;;;;;;;53.07;30.57;;;1.20;94.90;;;;;;5076902;28;20201;-82
2024/01/13 01:36:02;;;;;;;51.43;31.00;;;1.20;95.00;;;;;;5094747;28;20198;-82
2024/01/13 01:38:30;;;;;;;62.90;32.13;;;1.10;95.00;;;;;;5084144;28;20592;-82
2024/01/13 01:41:10;;;;;;;54.20;32.87;;;1.10;95.00;;;;;;5087612;28;20202;-82
2024/01/13 01:43:38;;;;;;;49.17;29.50;;;1.10;95.10;;;;;;5092486;28;20212;-82
2024/01/13 01:46:06;;;;;;;53.20;30.83;;;1.10;95.10;;;;;;5080866;28;20196;-82
2024/01/13 01:48:39;;;;;;;57.73;31.90;;;1.10;95.20;;;;;;5087504;28;20214;-82
2024/01/13 01:51:13;;;;;;;50.30;28.57;;;1.20;95.20;;;;;;5082732;28;20247;-82
2024/01/13 01:53:42;;;;;;;53.03;30.33;;;1.20;95.20;;;;;;5092032;28;20627;-82
2024/01/13 01:56:16;;;;;;;52.40;30.37;;;1.10;95.10;;;;;;5110044;28;20202;-81
2024/01/13 01:58:46;;;;;;;55.70;30.97;;;1.10;95.10;;;;;;5095440;28;20218;-81
2024/01/13 02:01:16;;;;;;;55.07;30.17;;;1.20;95.20;;;;;;5089539;28;20202;-81
2024/01/13 02:03:44;;;;;;;51.90;29.67;;;1.10;95.10;;;;;;5072989;28;20210;-81
2024/01/13 02:06:11;;;;;;;51.23;30.43;;;1.10;95.10;;;;;;5077845;28;20633;-83
2024/01/13 02:08:40;;;;;;;61.97;30.17;;;1.10;95.10;;;;;;5100652;28;20207;-81
2024/01/13 02:11:12;;;;;;;53.90;31.40;;;1.10;95.10;;;;;;5076671;28;20212;-81
2024/01/13 02:13:45;;;;;;;45.17;27.73;;;1.00;95.10;;;;;;5080498;28;20251;-81
2024/01/13 02:16:13;;;;;;;47.67;26.07;;;1.00;95.40;;;;;;5092484;28;20250;-81
2024/01/13 02:18:41;;;;;;;45.27;28.40;;;1.00;95.10;;;;;;5094389;28;20354;-81
2024/01/13 02:21:12;;;;;;;52.20;28.60;;;1.00;95.10;;;;;;5112923;28;20221;-81
2024/01/13 02:23:42;;;;;;;54.27;29.67;;;1.00;95.10;;;;;;5106064;28;20628;-81
2024/01/13 02:26:10;;;;;;;51.30;27.93;;;1.00;95.00;;;;;;5075313;28;20188;-81
2024/01/13 02:28:37;;;;;;;54.70;29.60;;;1.00;95.00;;;;;;5096306;28;20521;-81
2024/01/13 02:31:17;;;;;;;54.47;31.07;;;0.90;95.00;;;;;;5093081;28;20274;-81
2024/01/13 02:33:52;;;;;;;52.80;30.87;;;0.90;95.00;;;;;;5081287;28;20298;-81
2024/01/13 02:36:22;;;;;;;60.30;33.17;;;0.90;95.10;;;;;;5098604;28;20276;-81
2024/01/13 02:38:51;;;;;;;54.73;29.97;;;0.90;95.10;;;;;;5094667;28;20218;-81
2024/01/13 02:41:18;;;;;;;49.83;29.80;;;0.90;95.10;;;;;;5082795;28;20239;-82
2024/01/13 02:43:46;;;;;;;46.63;28.80;;;0.90;95.10;;;;;;5089005;28;20216;-81
2024/01/13 02:46:14;;;;;;;57.57;30.57;;;0.90;95.10;;;;;;5099893;28;20204;-81
2024/01/13 02:48:45;;;;;;;60.23;32.63;;;0.90;95.20;;;;;;5106187;28;20225;-81
2024/01/13 02:51:15;;;;;;;65.13;31.30;;;0.90;95.20;;;;;;5090105;28;20220;-81
2024/01/13 02:53:46;;;;;;;52.83;29.00;;;0.90;95.30;;;;;;5100921;28;20256;-81
2024/01/13 02:56:15;;;;;;;55.27;30.70;;;0.90;95.30;;;;;;5104169;28;20196;-81
2024/01/13 02:58:43;;;;;;;52.30;31.37;;;0.90;95.30;;;;;;5089410;28;20237;-81
2024/01/13 03:01:14;;;;;;;56.53;30.70;;;0.90;95.30;;;;;;5109298;28;20237;-81
2024/01/13 03:03:49;;;;;;;59.90;31.40;;;0.90;95.30;;;;;;5086674;28;20661;-81
2024/01/13 03:06:22;;;;;;;64.27;34.07;;;0.90;95.30;;;;;;5091522;28;20622;-81
2024/01/13 03:08:53;;;;;;;52.43;31.27;;;0.90;95.30;;;;;;5072798;28;20277;-81
2024/01/13 03:11:23;;;;;;;49.13;29.40;;;0.90;95.30;;;;;;5090669;28;20230;-81
2024/01/13 03:13:53;;;;;;;55.07;30.30;;;0.90;95.30;;;;;;5094641;27;20253;-81
2024/01/13 03:16:21;;;;;;;51.90;30.20;;;0.90;95.40;;;;;;5081364;28;20201;-83
2024/01/13 03:18:48;;;;;;;54.30;31.20;;;0.90;95.40;;;;;;5088482;28;20281;-81
2024/01/13 03:21:16;;;;;;;54.93;31.33;;;0.90;95.40;;;;;;5098221;28;20206;-81
2024/01/13 03:23:44;;;;;;;57.37;31.47;;;0.90;95.40;;;;;;5076219;28;20205;-81
2024/01/13 03:26:13;;;;;;;58.23;33.00;;;0.90;95.40;;;;;;5089167;28;20249;-81
2024/01/13 03:28:42;;;;;;;52.63;30.83;;;0.90;95.40;;;;;;5078470;28;20246;-81
2024/01/13 03:31:13;;;;;;;50.23;29.70;;;0.90;95.40;;;;;;5087279;28;20266;-81
2024/01/13 03:33:45;;;;;;;51.80;29.73;;;0.90;95.40;;;;;;5093030;28;20236;-81
2024/01/13 03:36:14;;;;;;;50.23;31.13;;;0.90;95.40;;;;;;5080381;28;20212;-82
2024/01/13 03:38:42;;;;;;;57.13;30.90;;;0.90;95.40;;;;;;5071028;28;20243;-81
2024/01/13 03:41:18;;;;;;;53.73;30.37;;;0.90;95.40;;;;;;5076367;28;20219;-81
2024/01/13 03:43:45;;;;;;;51.73;31.23;;;0.80;95.40;;;;;;5108265;28;20204;-81
2024/01/13 03:46:13;;;;;;;56.23;32.43;;;0.80;95.40;;;;;;5088092;28;20544;-81
2024/01/13 03:48:40;;;;;;;54.53;30.53;;;0.80;95.50;;;;;;5106999;28;20659;-81
2024/01/13 03:51:09;;;;;;;55.47;31.23;;;0.80;95.50;;;;;;5077117;28;20313;-81
2024/01/13 03:53:37;;;;;;;53.70;30.03;;;0.80;95.50;;;;;;5089255;28;20202;-81
2024/01/13 03:56:05;;;;;;;59.20;30.47;;;0.80;95.50;;;;;;5081391;28;20211;-81
2024/01/13 03:58:34;;;;;;;53.07;30.33;;;0.80;95.60;;;;;;5094940;28;20247;-81
2024/01/13 04:01:03;;;;;;;56.90;30.40;;;0.80;95.60;;;;;;5088710;28;20196;-81
2024/01/13 04:03:31;;;;;;;54.70;31.07;;;0.80;95.60;;;;;;5075561;28;20206;-81
2024/01/13 04:06:02;;;;;;;50.17;30.17;;;0.70;95.60;;;;;;5074716;28;20285;-81
2024/01/13 04:08:30;;;;;;;45.30;28.93;;;0.70;95.60;;;;;;5094560;28;20230;-81
2024/01/13 04:10:57;;;;;;;55.27;30.10;;;0.70;95.50;;;;;;5074674;28;20224;-81
2024/01/13 04:13:24;;;;;;;51.50;29.07;;;0.70;95.50;;;;;;5079082;28;20694;-81
2024/01/13 04:15:52;;;;;;;51.93;30.23;;;0.70;95.60;;;;;;5098128;28;20216;-81
2024/01/13 04:18:21;;;;;;;51.87;29.30;;;0.70;95.70;;;;;;5092514;28;20245;-81
2024/01/13 04:20:49;;;;;;;59.77;30.40;;;0.70;95.70;;;;;;5089661;28;20512;-81
2024/01/13 04:23:34;;;;;;;51.30;29.07;;;0.60;95.70;;;;;;5085033;28;20231;-81
2024/01/13 04:26:01;;;;;;;47.97;26.33;;;0.60;95.60;;;;;;5072055;28;20203;-81
2024/01/13 04:28:29;;;;;;;50.57;27.80;;;0.60;95.60;;;;;;5071966;28;20202;-83
2024/01/13 04:30:56;;;;;;;45.43;25.33;;;0.60;95.70;;;;;;5089418;28;20511;-81
2024/01/13 04:33:23;;;;;;;42.83;26.20;;;0.60;95.70;;;;;;5091495;28;20217;-81
2024/01/13 04:35:51;;;;;;;44.53;26.27;;;0.60;95.60;;;;;;5070756;28;20209;-82
2024/01/13 04:38:19;;;;;;;50.07;26.13;;;0.60;95.70;;;;;;5097532;28;20540;-82
2024/01/13 04:40:47;;;;;;;46.87;26.07;;;0.60;95.70;;;;;;5080485;28;20238;-81
2024/01/13 04:43:15;;;;;;;42.37;26.00;;;0.60;95.70;;;;;;5047535;28;20272;-81
2024/01/13 04:45:42;;;;;;;52.77;27.10;;;0.60;95.80;;;;;;5065866;28;20196;-82
2024/01/13 04:48:14;;;;;;;50.97;27.77;;;0.50;95.70;;;;;;5072167;28;20225;-82
2024/01/13 04:50:42;;;;;;;44.77;25.27;;;0.50;95.80;;;;;;5082756;28;20209;-81
2024/01/13 04:53:09;;;;;;;47.17;26.67;;;0.50;95.80;;;;;;5060851;28;20580;-82
2024/01/13 04:55:37;;;;;;;42.77;24.33;;;0.50;95.80;;;;;;5079101;28;20208;-81
2024/01/13 04:58:04;;;;;;;38.90;24.57;;;0.50;95.90;;;;;;5074605;28;20550;-83
2024/01/13 05:00:33;;;;;;;39.03;23.87;;;0.40;95.90;;;;;;5057901;28;20211;-82
2024/01/13 05:03:01;;;;;;;42.67;23.40;;;0.50;96.00;;;;;;5073913;28;20206;-82
2024/01/13 05:05:30;;;;;;;44.50;25.17;;;0.50;96.00;;;;;;5075547;28;20218;-83
2024/01/13 05:07:58;;;;;;;36.40;22.67;;;0.50;96.00;;;;;;5066359;28;20309;-81
2024/01/13 05:10:26;;;;;;;37.13;21.97;;;0.50;95.90;;;;;;5092841;28;20225;-83
2024/01/13 05:12:53;;;;;;;38.50;22.43;;;0.50;95.90;;;;;;5074952;28;20210;-81
2024/01/13 05:15:20;;;;;;;41.50;23.57;;;0.40;95.80;;;;;;5078744;28;20200;-81
2024/01/13 05:17:48;;;;;;;41.80;21.47;;;0.40;95.80;;;;;;5075055;28;20206;-81
2024/01/13 05:20:16;;;;;;;36.60;22.43;;;0.40;95.80;;;;;;5065264;28;20237;-81
2024/01/13 05:22:44;;;;;;;39.23;22.57;;;0.40;95.80;;;;;;5055085;28;20302;-81
2024/01/13 05:25:14;;;;;;;42.30;23.07;;;0.40;95.80;;;;;;5058110;28;20207;-83
2024/01/13 05:27:42;;;;;;;37.43;22.20;;;0.40;95.70;;;;;;5076498;28;20541;-81
2024/01/13 05:30:10;;;;;;;38.53;21.73;;;0.40;95.70;;;;;;5065370;28;20203;-84
2024/01/13 05:32:39;;;;;;;39.73;22.67;;;0.30;95.70;;;;;;5090222;28;20288;-81
2024/01/13 05:35:08;;;;;;;39.97;22.57;;;0.30;95.60;;;;;;5059287;28;20676;-81
2024/01/13 05:37:36;;;;;;;37.43;22.40;;;0.30;95.60;;;;;;5077572;28;20218;-82
2024/01/13 05:40:05;;;;;;;40.60;22.10;;;0.30;95.60;;;;;;5082274;28;20254;-81
2024/01/13 05:42:33;;;;;;;41.00;22.50;;;0.30;95.60;;;;;;5078546;28;20263;-81
2024/01/13 05:45:01;;;;;;;37.87;23.27;;;0.30;95.60;;;;;;5072948;28;20199;-81
2024/01/13 05:47:28;;;;;;;39.60;23.53;;;0.30;95.60;;;;;;5061934;28;20208;-82
2024/01/13 05:49:56;;;;;;;44.73;23.87;;;0.20;95.50;;;;;;5078895;28;20206;-82
2024/01/13 05:52:24;;;;;;;40.13;22.73;;;0.20;95.50;;;;;;5056917;28;20211;-81
2024/01/13 05:54:51;;;;;;;39.40;23.43;;;0.20;95.50;;;;;;5076324;28;20199;-83
2024/01/13 05:57:19;;;;;;;40.00;22.80;;;0.20;95.50;;;;;;5070990;28;20211;-81
2024/01/13 05:59:47;;;;;;;42.80;24.43;;;0.20;95.60;;;;;;5056886;28;20223;-83
2024/01/13 06:02:15;;;;;;;43.50;24.57;;;0.20;95.60;;;;;;5071685;28;20199;-82
2024/01/13 06:04:42;;;;;;;43.67;25.33;;;0.20;95.70;;;;;;5084030;28;20202;-82
2024/01/13 06:07:10;;;;;;;49.87;25.13;;;0.20;95.70;;;;;;5085777;28;20266;-82
2024/01/13 06:09:39;;;;;;;42.27;24.40;;;0.20;95.70;;;;;;5074975;28;20661;-82
2024/01/13 06:12:12;;;;;;;38.97;23.07;;;0.20;95.80;;;;;;5061520;28;20206;-82
2024/01/13 06:14:43;;;;;;;40.63;23.77;;;0.20;95.80;;;;;;5085850;28;20211;-82
2024/01/13 06:17:13;;;;;;;49.10;23.23;;;0.20;95.90;;;;;;5080323;28;20203;-82
2024/01/13 06:19:42;;;;;;;34.70;22.87;;;0.20;95.90;;;;;;5053594;28;20267;-82
2024/01/13 06:22:10;;;;;;;40.17;22.90;;;0.20;95.90;;;;;;5084992;28;20203;-81
2024/01/13 06:24:37;;;;;;;40.80;23.03;;;0.20;95.90;;;;;;5066742;28;20229;-82
2024/01/13 06:27:05;;;;;;;38.87;23.50;;;0.20;95.90;;;;;;5061657;28;20629;-82
2024/01/13 06:29:33;;;;;;;38.83;23.03;;;0.20;95.90;;;;;;5071594;28;20704;-82
2024/01/13 06:32:01;;;;;;;37.83;23.23;;;0.20;95.80;;;;;;5086766;28;20200;-82
2024/01/13 06:34:29;;;;;;;44.17;24.10;;;0.20;95.70;;;;;;5072867;28;20212;-82
2024/01/13 06:36:57;;;;;;;37.37;22.93;;;0.10;95.70;;;;;;5070396;28;20207;-82
2024/01/13 06:39:25;;;;;;;40.20;23.20;;;0.10;95.70;;;;;;5063196;28;20325;-82
2024/01/13 06:41:53;;;;;;;39.73;23.33;;;0.10;95.70;;;;;;5080928;28;20582;-82
2024/01/13 06:44:21;;;;;;;39.33;22.50;;;0.00;95.80;;;;;;5081844;28;20221;-82
2024/01/13 06:46:56;;;;;;;39.20;22.87;;;0.00;95.80;;;;;;5086453;28;20235;-81
2024/01/13 06:49:24;;;;;;;43.00;23.50;;;0.00;95.80;;;;;;5062910;28;20212;-82
2024/01/13 06:51:52;;;;;;;40.87;23.23;;;0.00;95.80;;;;;;5070653;28;20655;-81
2024/01/13 06:54:20;;;;;;;39.83;23.97;;;0.00;95.80;;;;;;5078171;28;20206;-81
2024/01/13 06:56:49;;;;;;;39.13;23.43;;;0.00;95.90;;;;;;5079697;28;20201;-83
2024/01/13 06:59:17;;;;;;;39.60;24.20;;;0.00;95.90;;;;;;5080383;28;20229;-82
2024/01/13 07:01:50;;;;;;;40.57;25.17;;;0.00;95.90;;;;;;5087100;28;20262;-83
2024/01/13 07:04:19;;;;;;;41.77;23.57;;;0.00;96.00;;;;;;5083813;28;20235;-83
2024/01/13 07:06:47;;;;;;;41.63;23.53;;;0.00;96.00;;;;;;5083014;28;20220;-82
2024/01/13 07:09:17;;;;;;;40.57;22.03;;;0.10;96.00;;;;;;5052436;28;20244;-82
2024/01/13 07:11:49;;;;;;;36.87;21.77;;;0.20;96.00;;;;;;5063097;28;20229;-81
2024/01/13 07:14:20;;;;;;;39.03;23.20;;;0.20;96.00;;;;;;5065290;28;20206;-82
2024/01/13 07:16:49;;;;;;;44.43;24.93;;;0.20;96.00;;;;;;5080665;28;20649;-82
2024/01/13 07:19:17;;;;;;;40.90;24.73;;;0.30;96.00;;;;;;5063453;28;20228;-82
2024/01/13 07:21:45;;;;;;;39.27;24.10;;;0.30;95.90;;;;;;5093584;28;20201;-82
2024/01/13 07:24:13;;;;;;;40.87;23.50;;;0.30;95.90;;;;;;5077171;28;20587;-82
2024/01/13 07:26:44;;;;;;;48.13;26.03;;;0.40;95.90;;;;;;5076432;28;20541;-82
2024/01/13 07:29:16;;;;;;;43.27;24.00;;;0.40;95.90;;;;;;5053989;28;20302;-82
2024/01/13 07:31:44;;;;;;;43.83;25.57;;;0.40;95.80;;;;;;5076101;28;20202;-82
2024/01/13 07:34:12;;;;;;;39.23;24.90;;;0.50;95.80;;;;;;5075226;28;20219;-82
2024/01/13 07:36:40;;;;;;;42.23;25.63;;;0.50;95.80;;;;;;5062046;28;20207;-82
2024/01/13 07:39:09;;;;;;;50.00;26.67;;;0.50;95.90;;;;;;5097587;28;20299;-82
2024/01/13 07:41:39;;;;;;;45.93;26.00;;;0.60;96.00;;;;;;5082206;28;20608;-82
2024/01/13 07:44:09;;;;;;;47.13;26.73;;;0.60;96.00;;;;;;5087130;28;20203;-82
2024/01/13 07:46:43;;;;;;;46.23;27.10;;;0.70;96.00;;;;;;5092796;28;20203;-81
2024/01/13 07:49:14;;;;;;;49.37;26.63;;;0.80;96.10;;;;;;5090071;28;20221;-83
2024/01/13 07:51:43;;;;;;;51.13;28.77;;;0.80;96.10;;;;;;5096024;28;20206;-82
2024/01/13 07:54:11;;;;;;;54.63;30.50;;;0.90;96.20;;;;;;5093721;28;20302;-83
2024/01/13 07:56:41;;;;;;;52.27;30.13;;;1.00;96.30;;;;;;5077290;28;20220;-82
2024/01/13 07:59:10;;;;;;;60.03;30.93;;;1.10;96.40;;;;;;5086085;28;20214;-82
2024/01/13 08:01:39;;;;;;;57.30;32.77;;;1.20;96.40;;;;;;5094319;28;20675;-82
2024/01/13 08:04:07;;;;;;;51.00;31.83;;;1.30;96.50;;;;;;5071342;28;20601;-82
2024/01/13 08:06:36;;;;;;;53.57;30.00;;;1.40;96.50;;;;;;5085731;28;20203;-83
2024/01/13 08:09:04;;;;;;;55.33;30.90;;;1.50;96.60;;;;;;5089733;28;20244;-82
2024/01/13 08:11:34;;;;;;;53.87;29.87;;;1.60;96.60;;;;;;5094028;28;20240;-82
2024/01/13 08:14:08;;;;;;;54.00;31.20;;;1.70;96.60;;;;;;5094691;28;20193;-83
2024/01/13 08:16:36;;;;;;;60.40;31.43;;;1.80;96.60;;;;;;5074941;28;20215;-82
2024/01/13 08:19:06;;;;;;;53.17;30.00;;;1.90;96.60;;;;;;5083023;28;20280;-83
2024/01/13 08:21:34;;;;;;;61.33;32.47;;;2.00;96.60;;;;;;5082890;28;20518;-83
2024/01/13 08:24:11;;;;;;;56.03;30.43;;;2.10;96.60;;;;;;5074775;28;20199;-82
2024/01/13 08:26:39;;;;;;;51.97;30.73;;;2.20;96.60;;;;;;5105184;28;20576;-82
2024/01/13 08:29:08;;;;;;;59.97;33.07;;;2.20;96.50;;;;;;5091598;28;20249;-82
2024/01/13 08:31:36;;;;;;;56.23;32.00;;;2.30;96.60;;;;;;5077000;28;20211;-82
2024/01/13 08:34:08;;;;;;;59.53;31.60;;;2.40;96.60;;;;;;5092113;28;20209;-82
2024/01/13 08:36:38;;;;;;;58.43;32.40;;;2.50;96.90;;;;;;5076757;28;20264;-81
2024/01/13 08:39:05;;;;;;;56.83;31.83;;;2.60;96.60;;;;;;5076371;28;20265;-81
2024/01/13 08:41:34;;;;;;;58.10;32.17;;;2.60;96.50;;;;;;5092428;28;20198;-82
2024/01/13 08:44:05;;;;;;;62.90;33.80;;;2.70;96.50;;;;;;5073579;28;20208;-82
2024/01/13 08:46:35;;;;;;;56.20;30.97;;;2.80;96.50;;;;;;5092895;28;20204;-82
2024/01/13 08:49:07;;;;;;;64.00;31.13;;;2.80;96.40;;;;;;5098127;28;20248;-81
2024/01/13 08:51:35;;;;;;;52.60;30.63;;;2.90;96.50;;;;;;5079608;28;20550;-82
2024/01/13 08:54:04;;;;;;;54.73;30.60;;;3.00;96.50;;;;;;5094351;28;20203;-81
2024/01/13 08:56:36;;;;;;;52.40;30.97;;;3.00;96.40;;;;;;5093192;28;20251;-82
2024/01/13 08:59:06;;;;;;;54.13;32.20;;;3.10;96.30;;;;;;5093657;28;20209;-82
2024/01/13 09:01:37;;;;;;;53.40;31.07;;;3.20;96.30;;;;;;5093527;28;20203;-82
2024/01/13 09:04:10;;;;;;;54.87;32.03;;;3.20;96.20;;;;;;5084802;28;20779;-82
2024/01/13 09:06:40;;;;;;;55.87;32.13;;;3.30;96.30;;;;;;5075144;28;20207;-83
2024/01/13 09:09:09;;;;;;;58.43;32.93;;;3.30;96.20;;;;;;5088864;28;20548;-83
2024/01/13 09:11:43;;;;;;;60.50;33.50;;;3.40;96.20;;;;;;5092884;28;20206;-83
2024/01/13 09:14:11;;;;;;;61.33;34.37;;;3.50;96.20;;;;;;5077552;28;20211;-83
2024/01/13 09:16:44;;;;;;;56.40;33.70;;;3.60;96.20;;;;;;5078483;28;20207;-82
2024/01/13 09:19:13;;;;;;;57.83;33.23;;;3.60;96.20;;;;;;5080730;28;20241;-81
2024/01/13 09:21:41;;;;;;;62.67;35.50;;;3.70;96.10;;;;;;5073374;28;20200;-83
2024/01/13 09:24:13;;;;;;;68.73;40.00;;;3.80;96.20;;;;;;5077188;28;20306;-82
2024/01/13 09:26:45;;;;;;;70.97;38.83;;;3.90;96.10;;;;;;5087371;28;20222;-82
2024/01/13 09:29:18;;;;;;;76.77;42.40;;;3.90;96.10;;;;;;5081558;28;20348;-81
2024/01/13 09:31:49;;;;;;;69.77;41.17;;;4.10;96.10;;;;;;5087806;28;20204;-84
2024/01/13 09:34:20;;;;;;;70.77;42.73;;;4.10;96.10;;;;;;5066938;28;20215;-81
2024/01/13 09:36:49;;;;;;;81.57;42.10;;;4.20;96.10;;;;;;5093982;28;20203;-81
2024/01/13 09:39:20;;;;;;;79.67;43.60;;;4.30;96.20;;;;;;5080573;28;20237;-82
2024/01/13 09:41:53;;;;;;;74.47;43.67;;;4.40;96.20;;;;;;5091234;28;20636;-81
2024/01/13 09:44:25;;;;;;;76.50;42.93;;;4.40;96.20;;;;;;5092668;28;20217;-82
2024/01/13 09:46:56;;;;;;;72.53;43.03;;;4.50;96.20;;;;;;5086429;28;20201;-82
2024/01/13 09:49:27;;;;;;;69.80;42.23;;;4.60;96.30;;;;;;5101149;28;20200;-82
2024/01/13 09:51:57;;;;;;;74.50;43.67;;;4.60;96.30;;;;;;5108054;28;20239;-82
2024/01/13 09:54:28;;;;;;;74.50;41.53;;;4.80;96.30;;;;;;5092355;28;20216;-82
2024/01/13 09:56:58;;;;;;;78.43;43.40;;;4.80;96.20;;;;;;5075166;28;20542;-82
2024/01/13 10:03:38;;;;;;;73.97;42.77;;;4.90;96.10;;;;;;5104616;28;20195;-81
2024/01/13 10:06:09;;;;;;;75.67;43.23;;;5.10;96.20;;;;;;5083294;28;20258;-81
2024/01/13 10:08:37;;;;;;;70.93;41.03;;;5.10;96.10;;;;;;5091649;28;20216;-81
2024/01/13 10:11:06;;;;;;;66.23;41.50;;;5.20;96.10;;;;;;5092672;28;20610;-80
2024/01/13 10:13:37;;;;;;;70.93;43.30;;;5.30;96.10;;;;;;5098738;28;20192;-81
2024/01/13 10:16:04;;;;;;;73.27;42.77;;;5.40;96.10;;;;;;5083342;28;20211;-80
2024/01/13 10:18:32;;;;;;;75.93;43.10;;;5.50;96.10;;;;;;5091050;28;20212;-81
2024/01/13 10:21:03;;;;;;;72.23;42.57;;;5.60;96.00;;;;;;5091208;28;20228;-81
2024/01/13 10:23:34;;;;;;;73.03;43.83;;;5.70;95.90;;;;;;5098567;28;20265;-80
2024/01/13 10:26:03;;;;;;;72.80;43.30;;;5.70;95.80;;;;;;5093807;28;20192;-79
2024/01/13 10:28:30;;;;;;;68.90;42.43;;;5.80;95.80;;;;;;5095935;27;20210;-80
2024/01/13 10:31:01;;;;;;;69.03;42.27;;;5.80;95.80;;;;;;5076495;28;20205;-80
2024/01/13 10:33:31;;;;;;;75.93;42.73;;;5.90;95.70;;;;;;5081691;28;20200;-80
2024/01/13 10:35:58;;;;;;;72.30;45.23;;;6.00;95.70;;;;;;5093999;28;20311;-80
2024/01/13 10:38:26;;;;;;;66.10;41.83;;;6.10;95.70;;;;;;5073053;28;20213;-80
2024/01/13 10:40:54;;;;;;;72.03;42.63;;;6.10;95.70;;;;;;5078672;28;20279;-81
2024/01/13 10:43:24;;;;;;;74.93;44.57;;;6.20;95.60;;;;;;5073478;28;20190;-81
2024/01/13 10:46:00;;;;;;;69.97;42.37;;;6.30;95.60;;;;;;5074418;28;20198;-81
2024/01/13 10:48:48;;;;;;;69.97;43.07;;;6.40;95.60;;;;;;5048653;28;20211;-79
2024/01/13 10:51:42;;;;;;;70.57;44.47;;;6.50;95.40;;;;;;5068066;28;20267;-81
2024/01/13 10:54:14;;;;;;;69.13;43.87;;;6.60;95.30;;;;;;5066508;28;20213;-80
2024/01/13 10:56:43;;;;;;;71.23;42.87;;;6.60;95.00;;;;;;5072639;28;20258;-81
2024/01/13 10:59:12;;;;;;;69.73;43.07;;;6.60;94.90;;;;;;5090118;28;20212;-81
2024/01/13 11:01:45;;;;;;;75.93;44.83;;;6.70;94.90;;;;;;5054025;28;20247;-81
2024/01/13 11:04:15;;;;;;;73.60;44.13;;;6.70;94.90;;;;;;5068043;28;20291;-82
2024/01/13 11:06:43;;;;;;;78.53;45.47;;;6.80;94.80;;;;;;5072002;28;20213;-82
2024/01/13 11:09:15;;;;;;;73.17;43.63;;;6.80;94.70;;;;;;5079877;28;20661;-82
2024/01/13 11:11:56;;;;;;;77.47;44.67;;;6.90;94.60;;;;;;5059821;28;20633;-83
2024/01/13 11:14:35;;;;;;;64.87;42.30;;;6.90;94.70;;;;;;5089185;28;20191;-82
2024/01/13 11:17:03;;;;;;;74.20;44.90;;;6.90;94.70;;;;;;5054789;28;20203;-82
2024/01/13 11:19:36;;;;;;;73.97;44.33;;;7.00;94.70;;;;;;5053045;28;20639;-82
2024/01/13 11:22:33;;;;;;;71.87;45.97;;;7.10;94.70;;;;;;5047521;28;20194;-83
2024/01/13 11:25:27;;;;;;;70.33;44.73;;;7.10;94.70;;;;;;5070916;28;20593;-83
2024/01/13 11:28:00;;;;;;;70.30;44.73;;;7.20;94.70;;;;;;5057761;28;20189;-82
2024/01/13 11:30:29;;;;;;;70.87;45.43;;;7.30;94.50;;;;;;5068060;28;20556;-83
2024/01/13 11:32:57;;;;;;;67.23;43.00;;;7.40;94.50;;;;;;5052819;28;20206;-82
2024/01/13 11:35:25;;;;;;;68.03;44.10;;;7.40;94.00;;;;;;5073075;28;20204;-82
2024/01/13 11:37:54;;;;;;;72.03;43.80;;;7.50;93.80;;;;;;5056460;28;20209;-83
2024/01/13 11:40:26;;;;;;;70.37;43.87;;;7.50;93.90;;;;;;5054499;28;20234;-82
2024/01/13 11:43:03;;;;;;;72.23;43.50;;;7.50;93.80;;;;;;5069991;28;20194;-82
2024/01/13 11:45:41;;;;;;;70.23;43.97;;;7.60;93.70;;;;;;5067236;28;20205;-83
2024/01/13 11:48:33;;;;;;;69.27;43.83;;;7.70;93.80;;;;;;5063878;28;20563;-82
2024/01/13 11:51:01;;;;;;;72.07;46.67;;;7.80;94.00;;;;;;5051545;28;20267;-82
2024/01/13 11:53:40;;;;;;;70.47;44.93;;;7.90;93.90;;;;;;5054947;28;20682;-82
2024/01/13 11:56:11;;;;;;;69.97;43.63;;;8.00;93.50;;;;;;5054323;28;20209;-81
2024/01/13 11:58:43;;;;;;;67.33;42.67;;;8.10;93.40;;;;;;5065145;28;20215;-81
2024/01/13 12:01:12;;;;;;;69.70;44.80;;;8.10;93.40;;;;;;5071110;28;20741;-82
2024/01/13 12:03:42;;;;;;;68.00;44.07;;;8.20;93.10;;;;;;5047197;28;20226;-83
2024/01/13 12:06:11;;;;;;;71.57;46.27;;;8.20;92.90;;;;;;5077385;28;20219;-82
2024/01/13 12:08:41;;;;;;;72.80;44.20;;;8.30;93.10;;;;;;5074130;28;20193;-82
2024/01/13 12:11:10;;;;;;;70.30;44.53;;;8.40;93.00;;;;;;5062334;28;20247;-82
2024/01/13 12:13:37;;;;;;;67.03;43.83;;;8.40;92.90;;;;;;5068537;28;20199;-82
2024/01/13 12:16:07;;;;;;;66.07;45.03;;;8.50;92.90;;;;;;5087230;28;20550;-82
2024/01/13 12:18:36;;;;;;;65.90;43.80;;;8.60;92.80;;;;;;5062642;28;20316;-82
2024/01/13 12:21:10;;;;;;;67.23;44.83;;;8.60;92.50;;;;;;5067145;28;20218;-82
2024/01/13 12:23:41;;;;;;;71.07;45.07;;;8.70;92.30;;;;;;5064718;28;20225;-82
2024/01/13 12:26:12;;;;;;;70.10;44.40;;;8.70;92.00;;;;;;5044536;28;20490;-85
2024/01/13 12:28:40;;;;;;;67.63;43.50;;;8.70;91.80;;;;;;5069149;28;20210;-82
2024/01/13 12:31:10;;;;;;;68.23;45.90;;;8.70;91.80;;;;;;5051936;28;20643;-82
2024/01/13 12:33:37;;;;;;;68.73;43.40;;;8.60;91.60;;;;;;5061341;28;20233;-83
2024/01/13 12:36:11;;;;;;;65.80;42.80;;;8.60;91.60;;;;;;5068286;28;20293;-82
2024/01/13 12:38:39;;;;;;;69.90;43.27;;;8.60;91.50;;;;;;5091287;28;20206;-82
2024/01/13 12:41:07;;;;;;;70.53;45.23;;;8.60;91.50;;;;;;5063379;28;20271;-81
2024/01/13 12:43:38;;;;;;;74.07;47.87;;;8.60;91.60;;;;;;5082543;28;20198;-81
2024/01/13 12:46:08;;;;;;;69.10;45.70;;;8.60;91.80;;;;;;5092557;28;20202;-83
2024/01/13 12:48:36;;;;;;;69.83;44.33;;;8.70;92.00;;;;;;5086467;28;20237;-82
2024/01/13 12:51:20;;;;;;;71.67;45.53;;;8.80;91.80;;;;;;5085876;28;20308;-82
2024/01/13 12:53:48;;;;;;;76.30;48.37;;;8.80;91.70;;;;;;5091323;28;20543;-83